Time;durP1;ratioP1;P1;durP2;ratioP2;P2;SDS_P1;SDS_P2;PMS_P1;PMS_P2;Temp;Humidity;BMP_temperature;BMP_pressure;BME280_temperature;BME280_humidity;BME280_pressure;Samples;Min_cycle;Max_cycle;Signal;HPM_P1;HPM_P2
2022/08/11 00:02:21;;;;;;;;;15.25;14.00;;;;;27.78;33.44;101598.97;5084825;27;46871;-68
2022/08/11 00:04:48;;;;;;;;;16.00;16.00;;;;;27.80;33.54;101607.97;5071323;28;45439;-68
2022/08/11 00:07:14;;;;;;;;;14.50;14.50;;;;;27.69;33.52;101599.59;5094747;27;45460;-68
2022/08/11 00:09:40;;;;;;;;;19.50;15.50;;;;;27.64;33.67;101607.81;5071016;27;45419;-68
2022/08/11 00:12:14;;;;;;;;;14.00;14.00;;;;;27.57;34.38;101607.06;5095651;27;46437;-68
2022/08/11 00:14:41;;;;;;;;;14.75;14.75;;;;;27.59;33.93;101602.97;5088882;27;45383;-68
2022/08/11 00:17:11;;;;;;;;;18.75;15.75;;;;;27.64;33.89;101605.88;5095008;27;45391;-68
2022/08/11 00:19:41;;;;;;;;;16.00;15.00;;;;;27.59;34.17;101602.97;5089759;27;45326;-69
2022/08/11 00:22:08;;;;;;;;;16.75;16.25;;;;;27.61;34.11;101599.94;5093529;27;45574;-69
2022/08/11 00:24:36;;;;;;;;;13.50;13.50;;;;;27.60;34.19;101601.88;5091685;27;45282;-69
2022/08/11 00:27:02;;;;;;;;;14.75;14.75;;;;;27.58;34.13;101601.25;5089526;27;45494;-69
2022/08/11 00:29:28;;;;;;;;;16.00;15.25;;;;;27.58;34.03;101612.41;5070905;27;45383;-69
2022/08/11 00:31:55;;;;;;;;;16.00;14.75;;;;;27.61;34.08;101602.72;5087104;27;46141;-69
2022/08/11 00:34:25;;;;;;;;;17.50;16.00;;;;;27.50;34.44;101604.34;5086727;27;45444;-66
2022/08/11 00:36:54;;;;;;;;;14.50;14.25;;;;;27.41;34.70;101614.16;5087807;27;45441;-67
2022/08/11 00:39:22;;;;;;;;;8.25;8.25;;;;;27.39;34.68;101613.56;5073540;27;45484;-67
2022/08/11 00:42:26;;;;;;;;;16.75;14.50;;;;;27.25;34.64;101610.09;5087154;27;46363;-68
2022/08/11 00:45:02;;;;;;;;;13.00;12.50;;;;;27.22;35.37;101620.91;5086806;27;45408;-68
2022/08/11 00:47:30;;;;;;;;;17.00;15.25;;;;;27.20;34.39;101612.75;5071376;28;45518;-68
2022/08/11 00:50:20;;;;;;;;;14.50;14.50;;;;;27.18;34.99;101617.72;5088195;27;45504;-68
2022/08/11 00:53:07;;;;;;;;;14.50;13.25;;;;;27.05;34.89;101618.78;5087517;27;45388;-68
2022/08/11 00:55:42;;;;;;;;;14.75;13.50;;;;;27.03;35.04;101620.13;5091804;27;45317;-68
2022/08/11 00:58:29;;;;;;;;;12.75;12.75;;;;;27.01;35.09;101623.13;5083679;27;45299;-68
2022/08/11 01:01:16;;;;;;;;;0.25;0.25;;;;;26.99;35.11;101614.13;5091203;27;45151;-68
2022/08/11 01:04:12;;;;;;;;;16.00;16.00;;;;;26.94;35.46;101621.53;5079353;27;48178;-68
2022/08/11 01:07:05;;;;;;;;;12.25;12.25;;;;;26.90;35.71;101621.13;5084303;27;45421;-67
2022/08/11 01:09:36;;;;;;;;;14.50;14.50;;;;;26.87;35.67;101613.22;5089896;27;45443;-67
2022/08/11 01:12:20;;;;;;;;;14.50;14.50;;;;;26.81;35.93;101611.38;5095605;27;45360;-66
2022/08/11 01:14:51;;;;;;;;;14.00;14.00;;;;;26.81;35.27;101616.94;5071563;28;48139;-66
2022/08/11 01:17:25;;;;;;;;;13.25;12.75;;;;;26.82;35.28;101609.41;5077731;27;45696;-66
2022/08/11 01:19:51;;;;;;;;;14.00;13.50;;;;;26.83;35.55;101605.53;5095709;27;45488;-67
2022/08/11 01:23:01;;;;;;;;;13.25;13.25;;;;;26.78;35.75;101611.81;5101147;27;45243;-67
2022/08/11 01:26:05;;;;;;;;;11.75;11.00;;;;;26.78;35.29;101600.69;5085465;27;46551;-67
2022/08/11 01:29:10;;;;;;;;;13.00;12.00;;;;;26.77;35.26;101601.75;5001493;28;45449;-66
2022/08/11 01:32:12;;;;;;;;;13.25;11.75;;;;;26.73;35.39;101606.13;5096159;27;45398;-67
2022/08/11 01:35:06;;;;;;;;;14.00;12.50;;;;;26.60;35.96;101609.03;5094997;27;45763;-66
2022/08/11 01:38:00;;;;;;;;;13.00;11.25;;;;;26.56;35.89;101608.69;5070375;27;46148;-67
2022/08/11 01:40:43;;;;;;;;;12.50;12.00;;;;;26.48;36.02;101606.19;5094222;27;45551;-66
2022/08/11 01:46:42;;;;;;;;;15.50;12.00;;;;;26.32;36.61;101612.38;5094133;27;45400;-66
2022/08/11 01:49:28;;;;;;;;;12.67;11.00;;;;;26.36;36.22;101613.63;5092136;27;46704;-67
2022/08/11 01:52:03;;;;;;;;;10.25;10.25;;;;;26.39;35.52;101606.72;5098922;27;45408;-66
2022/08/11 01:54:40;;;;;;;;;11.50;11.50;;;;;26.29;36.12;101601.72;5093488;27;45518;-66
2022/08/11 01:57:24;;;;;;;;;13.00;13.00;;;;;26.25;36.07;101601.31;5093628;27;45452;-67
2022/08/11 01:59:55;;;;;;;;;12.00;12.00;;;;;26.23;36.23;101616.50;5096387;27;46029;-66
2022/08/11 02:02:46;;;;;;;;;11.50;11.50;;;;;26.18;36.74;101617.22;5099531;27;45468;-66
2022/08/11 02:05:49;;;;;;;;;13.50;13.00;;;;;26.19;36.55;101613.34;5095717;27;45607;-66
2022/08/11 02:08:40;;;;;;;;;13.00;13.00;;;;;26.16;36.47;101612.94;5085427;27;45222;-67
2022/08/11 02:11:32;;;;;;;;;11.50;11.50;;;;;26.04;36.17;101609.22;5102028;27;45415;-66
2022/08/11 02:14:19;;;;;;;;;13.25;13.25;;;;;25.97;37.10;101609.28;5091532;27;45843;-69
2022/08/11 02:17:11;;;;;;;;;7.25;6.00;;;;;25.93;36.77;101608.06;5093695;27;45551;-66
2022/08/11 02:26:08;;;;;;;;;13.50;13.50;;;;;25.80;37.05;101619.28;5099964;27;45282;-66
2022/08/11 02:28:46;;;;;;;;;19.00;18.25;;;;;25.72;37.20;101611.22;5100248;27;45515;-66
2022/08/11 02:34:14;;;;;;;;;36.25;31.25;;;;;25.62;37.87;101611.75;5087813;27;45294;-66
2022/08/11 02:36:54;;;;;;;;;40.25;35.00;;;;;25.52;37.91;101603.88;5101505;27;45420;-66
2022/08/11 02:39:27;;;;;;;;;45.75;36.25;;;;;25.50;38.05;101600.44;5069662;27;45333;-66
2022/08/11 02:42:22;;;;;;;;;48.50;38.00;;;;;25.51;37.60;101604.09;5092330;27;45341;-66
2022/08/11 02:44:50;;;;;;;;;42.75;34.75;;;;;25.53;38.09;101605.56;5088469;27;45487;-66
2022/08/11 02:47:41;;;;;;;;;50.75;40.00;;;;;25.48;38.35;101604.56;5072014;27;45474;-66
2022/08/11 02:50:25;;;;;;;;;52.00;41.00;;;;;25.38;38.45;101599.50;5095708;27;45389;-67
2022/08/11 02:53:06;;;;;;;;;53.50;39.50;;;;;25.31;38.36;101603.41;5092545;27;45409;-66
2022/08/11 02:55:37;;;;;;;;;52.75;41.75;;;;;25.28;38.46;101609.44;5096574;27;45392;-66
2022/08/11 02:58:28;;;;;;;;;51.25;42.25;;;;;25.20;38.21;101602.19;5085891;27;45454;-66
2022/08/11 03:01:05;;;;;;;;;46.00;39.00;;;;;25.14;38.81;101600.28;5091911;27;45569;-69
2022/08/11 03:03:43;;;;;;;;;39.50;33.00;;;;;25.06;39.12;101595.00;5085984;27;45673;-67
2022/08/11 03:06:40;;;;;;;;;29.00;27.00;;;;;25.02;38.65;101594.59;5097432;27;45727;-66
2022/08/11 03:09:28;;;;;;;;;30.00;23.75;;;;;25.02;38.73;101610.44;5089694;27;45257;-66
2022/08/11 03:18:23;;;;;;;;;18.50;16.50;;;;;25.10;38.05;101599.03;5098347;27;45543;-67
2022/08/11 03:21:08;;;;;;;;;16.75;14.75;;;;;25.12;38.42;101599.69;5095546;27;45381;-67
2022/08/11 03:24:13;;;;;;;;;16.25;14.50;;;;;25.10;38.64;101596.25;5085407;27;45262;-67
2022/08/11 03:26:55;;;;;;;;;16.75;14.75;;;;;25.17;38.07;101597.06;5091977;27;45733;-67
2022/08/11 03:29:27;;;;;;;;;15.00;14.50;;;;;25.20;37.93;101599.41;5078960;27;48701;-67
2022/08/11 03:32:22;;;;;;;;;14.75;14.50;;;;;25.27;38.15;101594.66;5076487;27;45466;-66
2022/08/11 03:34:49;;;;;;;;;15.00;14.75;;;;;25.31;37.83;101592.25;5093629;27;45451;-66
2022/08/11 03:37:49;;;;;;;;;16.75;14.00;;;;;25.33;38.31;101602.09;5090354;27;45313;-67
2022/08/11 03:41:41;;;;;;;;;21.50;15.50;;;;;25.29;38.40;101589.69;5086776;27;45504;-66
2022/08/11 03:43:44;;;;;;;;;18.75;14.75;;;;;25.14;38.31;101594.72;5084334;27;45164;-66
2022/08/11 03:46:44;;;;;;;;;19.75;17.25;;;;;25.12;38.42;101599.69;5086578;27;45202;-67
2022/08/11 03:49:24;;;;;;;;;18.50;15.75;;;;;25.19;37.70;101603.28;5084355;27;45279;-68
2022/08/11 03:51:54;;;;;;;;;16.00;16.00;;;;;25.23;37.80;101606.44;5094583;27;45749;-67
2022/08/11 03:54:49;;;;;;;;;14.25;13.50;;;;;25.23;38.12;101601.72;5086874;27;45528;-67
2022/08/11 03:57:25;;;;;;;;;16.00;16.00;;;;;25.32;37.45;101600.41;5088503;27;45314;-67
2022/08/11 04:00:02;;;;;;;;;18.25;16.75;;;;;25.32;37.72;101610.66;5090985;27;45347;-67
2022/08/11 04:02:52;;;;;;;;;17.00;16.25;;;;;25.25;37.65;101594.03;5085567;27;46652;-67
2022/08/11 04:05:26;;;;;;;;;17.50;17.50;;;;;25.19;38.19;101603.28;5091333;27;45410;-67
2022/08/11 04:07:57;;;;;;;;;18.00;17.00;;;;;25.20;38.08;101599.41;5083075;27;45402;-67
2022/08/11 04:11:14;;;;;;;;;22.00;19.25;;;;;25.09;38.87;101597.34;5099598;27;45637;-67
2022/08/11 04:15:58;;;;;;;;;17.75;15.50;;;;;25.10;38.19;101601.81;5086331;27;46186;-67
2022/08/11 04:17:07;;;;;;;;;22.00;18.75;;;;;25.15;38.22;101604.78;5087153;27;45298;-67
2022/08/11 04:19:36;;;;;;;;;17.75;17.75;;;;;25.09;39.14;101600.13;5075769;27;45389;-67
2022/08/11 04:22:19;;;;;;;;;16.00;16.00;;;;;24.93;39.02;101606.19;5071968;28;45559;-67
2022/08/11 04:25:32;;;;;;;;;19.50;18.25;;;;;24.90;39.57;101603.84;5080791;27;46704;-67
2022/08/11 04:28:17;;;;;;;;;18.00;16.75;;;;;24.88;39.07;101608.75;5048175;27;45288;-67
2022/08/11 04:31:24;;;;;;;;;17.50;17.50;;;;;24.84;39.77;101608.34;5092607;27;45477;-67
2022/08/11 04:34:07;;;;;;;;;13.75;13.75;;;;;24.87;39.35;101607.06;5086486;27;45394;-67
2022/08/11 04:40:42;;;;;;;;;24.25;19.75;;;;;24.83;39.22;101613.06;5088777;27;45561;-67
2022/08/11 04:43:36;;;;;;;;;20.00;20.00;;;;;24.90;39.26;101609.41;5002225;28;45371;-68
2022/08/11 04:46:13;;;;;;;;;23.75;20.50;;;;;24.85;39.53;101604.50;5092638;27;45255;-67
2022/08/11 05:02:43;;;;;;;;;20.50;15.75;;;;;25.06;39.25;101601.41;5002851;27;45823;-68
2022/08/11 05:05:49;;;;;;;;;16.50;14.75;;;;;25.09;38.38;101595.41;5078232;27;45562;-67
2022/08/11 05:08:33;;;;;;;;;15.25;14.25;;;;;25.13;38.19;101599.44;5080336;27;45398;-68
2022/08/11 05:11:04;;;;;;;;;13.75;13.75;;;;;25.16;38.75;101603.72;5095884;27;45558;-67
2022/08/11 05:36:50;;;;;;;;;13.75;13.75;;;;;25.82;37.42;101628.28;5088443;27;45318;-67
2022/08/11 05:56:20;;;;;;;;;15.25;15.25;;;;;26.56;35.39;101639.34;5089718;27;45361;-67
2022/08/11 05:58:50;;;;;;;;;14.50;14.50;;;;;26.58;34.81;101645.53;5084095;27;45469;-68
2022/08/11 06:01:30;;;;;;;;;13.50;13.50;;;;;26.66;34.87;101636.00;5089060;27;45365;-68
2022/08/11 06:04:13;;;;;;;;;15.00;13.50;;;;;26.74;34.42;101650.47;5083676;27;45457;-67
2022/08/11 06:07:01;;;;;;;;;13.50;13.50;;;;;26.78;34.84;101639.72;5081964;28;45455;-68
2022/08/11 06:09:29;;;;;;;;;14.25;13.25;;;;;26.88;34.49;101645.59;5101996;27;47063;-68
2022/08/11 06:11:59;;;;;;;;;17.50;15.25;;;;;26.81;33.75;101647.63;5079578;27;45709;-68
2022/08/11 06:14:25;;;;;;;;;15.25;14.25;;;;;26.90;33.89;101645.38;5102386;27;45456;-68
2022/08/11 06:16:58;;;;;;;;;18.50;14.25;;;;;27.01;34.46;101647.38;5094482;27;45437;-68
2022/08/11 06:19:32;;;;;;;;;15.50;15.25;;;;;27.62;33.20;101641.53;5089284;27;45199;-68
2022/08/11 06:22:00;;;;;;;;;13.75;11.75;;;;;28.06;32.39;101636.50;5100594;27;45527;-68
2022/08/11 06:24:28;;;;;;;;;13.50;11.75;;;;;28.13;32.35;101634.44;5098924;27;45419;-67
2022/08/11 06:26:54;;;;;;;;;15.25;14.00;;;;;28.24;31.69;101634.47;5101490;27;45529;-68
2022/08/11 06:29:21;;;;;;;;;17.25;14.50;;;;;28.38;31.39;101646.25;5083421;27;46811;-68
2022/08/11 06:31:58;;;;;;;;;14.00;13.50;;;;;28.27;31.30;101649.91;5093049;27;45283;-67
2022/08/11 06:35:03;;;;;;;;;17.50;15.25;;;;;28.06;31.48;101647.66;5088027;27;45421;-67
2022/08/11 06:38:07;;;;;;;;;13.75;12.25;;;;;27.91;31.47;101644.53;5093214;27;45386;-67
2022/08/11 06:40:35;;;;;;;;;22.00;18.75;;;;;27.84;31.72;101647.41;5089381;27;45573;-67
2022/08/11 06:43:17;;;;;;;;;14.75;13.00;;;;;27.85;31.95;101652.75;5070701;28;45335;-67
2022/08/11 06:46:12;;;;;;;;;14.75;14.75;;;;;28.13;31.39;101646.47;5100122;27;45443;-67
2022/08/11 06:48:38;;;;;;;;;18.00;14.25;;;;;28.14;31.22;101650.97;5081155;27;45534;-68
2022/08/11 06:51:11;;;;;;;;;11.50;11.50;;;;;28.29;31.24;101644.91;5078235;28;47603;-67
2022/08/11 06:53:57;;;;;;;;;13.50;12.50;;;;;28.21;31.37;101648.94;5067117;27;45496;-69
2022/08/11 07:02:04;;;;;;;;;11.00;10.00;;;;;28.64;30.69;101651.31;5083783;27;45389;-66
2022/08/11 07:05:20;;;;;;;;;10.00;10.00;;;;;28.75;30.54;101655.22;5089808;27;45457;-67
2022/08/11 07:15:40;;;;;;;;;12.00;11.00;;;;;28.94;30.50;101651.13;5099583;27;45390;-67
2022/08/11 07:17:22;;;;;;;;;15.00;11.75;;;;;28.81;30.00;101639.38;5090889;27;45429;-67
2022/08/11 07:31:12;;;;;;;;;14.75;13.00;;;;;29.69;28.81;101652.88;5089806;27;45418;-69
2022/08/11 07:33:48;;;;;;;;;14.00;13.25;;;;;29.80;27.94;101643.56;5086189;27;45289;-67
2022/08/11 07:36:16;;;;;;;;;17.25;12.75;;;;;29.81;28.03;101640.50;5092943;27;45624;-67
2022/08/11 07:38:50;;;;;;;;;12.50;12.50;;;;;29.81;27.44;101631.22;5087558;27;45316;-68
2022/08/11 07:41:18;;;;;;;;;14.50;14.50;;;;;29.94;27.79;101644.09;5090498;27;45388;-67
2022/08/11 07:43:47;;;;;;;;;14.25;13.00;;;;;29.97;27.07;101636.03;5075838;27;45431;-67
2022/08/11 07:54:29;;;;;;;;;12.50;10.75;;;;;30.12;26.70;101635.41;5094742;27;45262;-67
2022/08/11 07:56:56;;;;;;;;;11.00;10.00;;;;;30.42;25.73;101632.22;5092314;27;45380;-67
2022/08/11 08:18:39;;;;;;;;;11.75;9.25;;;;;31.76;24.19;101634.41;5088434;27;45340;-68
2022/08/11 08:21:13;;;;;;;;;8.33;8.33;;;;;31.89;24.28;101622.72;5074876;27;46243;-67
2022/08/11 08:23:41;;;;;;;;;9.00;8.33;;;;;32.14;24.42;101627.69;5084562;27;45394;-67
2022/08/11 08:30:45;;;;;;;;;11.00;9.25;;;;;32.56;23.98;101625.72;5097601;27;46347;-67
2022/08/11 08:31:41;;;;;;;;;9.00;9.00;;;;;32.71;22.79;101627.78;5102815;27;45534;-67
2022/08/11 08:34:08;;;;;;;;;8.25;8.25;;;;;32.76;23.12;101628.66;5095914;27;45312;-67
2022/08/11 08:36:33;;;;;;;;;13.67;11.00;;;;;32.85;22.93;101626.16;5092334;27;45392;-67
2022/08/11 08:38:59;;;;;;;;;9.25;9.25;;;;;32.97;22.88;101626.75;5094151;27;45486;-67
2022/08/11 08:41:28;;;;;;;;;11.00;11.00;;;;;33.07;22.96;101629.63;5086101;27;45321;-67
2022/08/11 08:43:57;;;;;;;;;10.75;10.50;;;;;33.25;23.10;101625.44;5085846;27;45350;-67
2022/08/11 08:46:29;;;;;;;;;9.75;9.75;;;;;33.38;22.44;101612.81;5097270;27;45334;-67
2022/08/11 08:48:58;;;;;;;;;10.25;9.50;;;;;33.56;22.20;101632.00;5093972;27;45556;-68
2022/08/11 08:51:34;;;;;;;;;9.67;9.33;;;;;33.65;22.61;101630.31;5091994;27;45339;-67
2022/08/11 08:54:05;;;;;;;;;10.25;9.00;;;;;33.86;21.87;101623.56;5085545;27;45349;-67
2022/08/11 08:56:33;;;;;;;;;10.75;9.75;;;;;34.02;22.69;101623.56;5092047;27;45426;-68
2022/08/11 08:59:01;;;;;;;;;8.67;8.67;;;;;34.20;21.84;101626.63;5066846;27;48273;-68
2022/08/11 09:01:32;;;;;;;;;9.75;9.75;;;;;34.33;21.21;101636.53;5084015;27;45369;-67
2022/08/11 09:03:58;;;;;;;;;10.75;10.75;;;;;34.41;21.54;101637.91;5071361;27;45519;-68
2022/08/11 09:06:24;;;;;;;;;11.00;10.25;;;;;34.48;21.17;101639.31;5093600;27;45341;-68
2022/08/11 09:08:50;;;;;;;;;10.25;9.25;;;;;34.61;21.29;101632.22;5050503;27;48068;-68
2022/08/11 09:14:02;;;;;;;;;9.00;8.00;;;;;34.73;21.68;101630.78;5095061;27;45475;-68
2022/08/11 09:16:28;;;;;;;;;11.25;10.25;;;;;35.06;20.49;101640.50;5095212;27;45144;-67
2022/08/11 09:18:53;;;;;;;;;10.00;8.50;;;;;35.28;20.43;101634.47;5083752;27;46150;-67
2022/08/11 09:21:21;;;;;;;;;9.75;8.00;;;;;35.59;20.64;101631.41;5094267;27;45432;-67
2022/08/11 09:29:31;;;;;;;;;8.50;7.00;;;;;36.20;19.75;101621.31;5087043;27;46786;-68
2022/08/11 09:31:58;;;;;;;;;8.75;8.75;;;;;36.36;19.80;101621.16;5082978;27;45246;-68
2022/08/11 09:34:25;;;;;;;;;9.00;8.75;;;;;36.30;19.22;101609.06;5066808;28;45577;-67
2022/08/11 09:44:45;;;;;;;;;7.50;7.50;;;;;36.42;19.76;101602.97;5090631;27;45389;-68
2022/08/11 09:45:11;;;;;;;;;6.25;6.25;;;;;36.98;18.19;101598.28;5097826;27;45652;-68
2022/08/11 09:47:37;;;;;;;;;6.75;6.00;;;;;37.28;18.46;101599.00;5088573;27;45314;-68
2022/08/11 09:50:07;;;;;;;;;5.25;5.25;;;;;37.65;17.37;101606.66;5093309;27;45383;-68
2022/08/11 09:52:37;;;;;;;;;7.00;7.00;;;;;37.77;16.63;101605.03;5088241;27;45535;-68
2022/08/11 09:55:09;;;;;;;;;6.75;6.75;;;;;37.93;16.40;101597.09;5093701;27;45321;-68
2022/08/11 10:00:31;;;;;;;;;7.00;7.00;;;;;38.15;16.80;101596.44;5097009;27;45809;-67
2022/08/11 10:03:00;;;;;;;;;13.25;13.25;;;;;38.39;16.47;101593.41;5085621;27;45277;-68
2022/08/11 10:08:13;;;;;;;;;8.25;7.00;;;;;38.67;16.00;101594.25;5085814;27;45324;-68
2022/08/11 10:10:39;;;;;;;;;7.50;7.50;;;;;38.87;16.05;101600.34;5094750;27;45481;-67
2022/08/11 10:13:09;;;;;;;;;6.75;6.75;;;;;38.93;15.24;101598.28;5088396;27;45450;-68
2022/08/11 10:15:37;;;;;;;;;7.75;6.75;;;;;38.78;15.20;101592.91;5076092;28;45359;-67
2022/08/11 10:21:01;;;;;;;;;6.75;6.75;;;;;38.80;14.09;101585.72;5091948;27;45735;-68
2022/08/11 10:33:58;;;;;;;;;9.25;6.75;;;;;38.80;14.58;101576.34;5099663;27;45470;-68
2022/08/11 10:34:36;;;;;;;;;10.00;10.00;;;;;39.01;14.90;101582.47;5088518;27;45288;-67
2022/08/11 10:37:02;;;;;;;;;9.25;9.25;;;;;39.29;14.16;101572.69;5073346;27;45272;-66
2022/08/11 10:39:28;;;;;;;;;9.25;9.25;;;;;39.19;13.99;101576.63;5101450;27;45234;-67
2022/08/11 10:44:46;;;;;;;;;8.25;8.25;;;;;38.61;14.62;101567.97;5093804;27;45503;-67
2022/08/11 11:01:02;;;;;;;;;8.50;8.50;;;;;39.46;14.49;101549.25;5096460;27;45468;-67
2022/08/11 11:03:29;;;;;;;;;8.00;8.00;;;;;39.37;14.20;101546.38;5098327;27;45537;-67
2022/08/11 11:06:05;;;;;;;;;7.75;7.75;;;;;39.58;14.38;101543.84;5096727;27;45163;-67
2022/08/11 11:08:54;;;;;;;;;10.25;8.75;;;;;39.86;14.45;101542.53;5086842;27;45331;-66
2022/08/11 11:17:54;;;;;;;;;10.50;9.25;;;;;39.88;14.37;101551.59;5091857;27;45525;-67
2022/08/11 11:19:38;;;;;;;;;9.00;6.00;;;;;39.68;14.37;101535.00;5099997;27;45454;-67
2022/08/11 11:25:11;;;;;;;;;9.00;9.00;;;;;39.04;14.51;101522.97;5089987;27;45573;-67
2022/08/11 11:27:49;;;;;;;;;8.00;8.00;;;;;39.40;15.26;101522.13;5096772;27;45275;-67
2022/08/11 11:30:16;;;;;;;;;8.25;7.75;;;;;39.79;14.26;101525.06;5089093;27;45349;-67
2022/08/11 11:33:00;;;;;;;;;4.75;3.75;;;;;39.23;14.37;101512.25;5092240;27;46349;-67
2022/08/11 11:35:48;;;;;;;;;7.75;7.75;;;;;39.78;14.53;101514.84;5071883;27;46436;-67
2022/08/11 11:38:14;;;;;;;;;7.75;6.50;;;;;40.33;14.20;101505.94;5092744;27;45370;-67
2022/08/11 11:40:40;;;;;;;;;7.75;7.75;;;;;40.32;14.02;101498.56;5087203;27;45608;-67
2022/08/11 11:43:06;;;;;;;;;6.25;5.50;;;;;40.72;13.87;101497.31;5084754;27;45440;-67
2022/08/11 11:45:32;;;;;;;;;9.00;9.00;;;;;40.89;13.24;101502.19;5095389;27;46149;-68
2022/08/11 11:47:59;;;;;;;;;9.00;9.00;;;;;39.55;13.99;101496.13;5084403;27;45221;-69
2022/08/11 11:50:28;;;;;;;;;9.50;8.25;;;;;40.07;13.82;101503.78;5074199;28;45467;-67
2022/08/11 11:52:55;;;;;;;;;7.75;7.50;;;;;40.54;13.64;101498.44;5084378;27;45498;-67
2022/08/11 11:55:23;;;;;;;;;11.75;11.25;;;;;40.65;14.05;101508.34;5093182;27;45434;-67
2022/08/11 12:03:22;;;;;;;;;7.00;6.00;;;;;41.12;12.80;101505.75;5083358;27;45248;-67
2022/08/11 12:05:51;;;;;;;;;9.00;7.75;;;;;41.28;13.03;101495.47;5099412;27;45468;-67
2022/08/11 12:08:18;;;;;;;;;12.25;8.00;;;;;41.18;13.51;101493.00;5088221;27;45444;-67
2022/08/11 12:10:47;;;;;;;;;11.75;9.00;;;;;41.33;13.17;101491.63;5090355;27;45307;-67
2022/08/11 12:16:02;;;;;;;;;8.25;7.00;;;;;41.25;12.54;101489.63;5091805;27;45930;-67
2022/08/11 12:18:30;;;;;;;;;9.50;7.00;;;;;41.22;12.68;101482.56;5086313;27;45332;-67
2022/08/11 12:20:57;;;;;;;;;11.75;11.50;;;;;41.18;12.88;101473.03;5092593;27;45397;-67
2022/08/11 12:28:51;;;;;;;;;15.75;11.00;;;;;41.59;12.39;101470.44;5086842;27;45480;-68
2022/08/11 12:31:20;;;;;;;;;13.00;11.00;;;;;41.69;12.23;101482.69;5093253;27;45252;-67
2022/08/11 12:33:46;;;;;;;;;14.00;14.00;;;;;41.59;12.59;101470.44;5085125;27;45891;-68
2022/08/11 12:36:15;;;;;;;;;12.50;10.00;;;;;41.55;12.59;101466.63;5091485;27;45359;-67
2022/08/11 12:38:44;;;;;;;;;10.50;9.50;;;;;41.61;12.64;101458.72;5070539;27;45620;-67
2022/08/11 12:46:44;;;;;;;;;11.50;9.25;;;;;41.33;12.76;101446.84;5094752;27;45208;-66
2022/08/11 12:52:11;;;;;;;;;10.75;10.25;;;;;41.15;12.89;101443.19;5086142;27;45472;-67
2022/08/11 12:55:08;;;;;;;;;10.00;10.00;;;;;41.67;13.15;101445.09;5095541;27;45256;-67
2022/08/11 13:05:59;;;;;;;;;8.00;8.00;;;;;41.37;12.95;101433.56;5095276;27;45274;-66
2022/08/11 13:08:28;;;;;;;;;10.25;10.25;;;;;41.12;13.53;101432.47;5086354;27;46461;-66
2022/08/11 13:13:43;;;;;;;;;10.25;8.25;;;;;41.51;12.88;101422.81;5084044;27;45185;-67
2022/08/11 13:16:09;;;;;;;;;9.25;7.00;;;;;41.57;12.84;101414.94;5072332;28;45479;-67
2022/08/11 13:18:37;;;;;;;;;8.00;7.50;;;;;41.70;13.21;101416.72;5082599;27;45337;-67
2022/08/11 13:21:04;;;;;;;;;11.25;11.00;;;;;41.71;12.23;101431.81;5092335;27;45469;-67
2022/08/11 13:23:30;;;;;;;;;10.00;9.25;;;;;41.81;12.19;101422.84;5085158;27;45393;-67
2022/08/11 13:25:56;;;;;;;;;11.00;10.25;;;;;41.96;11.97;101430.88;5073667;27;45444;-67
2022/08/11 13:28:22;;;;;;;;;3.75;3.75;;;;;41.76;12.28;101426.75;5087908;27;45227;-67
2022/08/11 13:33:40;;;;;;;;;11.25;11.25;;;;;41.46;12.27;101431.53;5084193;27;45300;-67
2022/08/11 13:36:06;;;;;;;;;9.00;8.00;;;;;41.47;12.84;101421.81;5092067;27;45420;-67
2022/08/11 13:38:33;;;;;;;;;11.00;10.00;;;;;40.79;12.37;101420.72;5082771;27;45698;-67
2022/08/11 13:40:59;;;;;;;;;9.75;8.00;;;;;41.45;12.69;101411.91;5094838;27;45656;-67
2022/08/11 13:43:26;;;;;;;;;13.75;11.25;;;;;41.68;12.76;101413.34;5082558;27;45360;-68
2022/08/11 13:46:17;;;;;;;;;8.00;8.00;;;;;41.95;12.55;101429.19;5095515;27;45330;-67
2022/08/11 13:48:41;;;;;;;;;14.75;12.75;;;;;41.93;12.55;101415.28;5082456;27;45429;-67
2022/08/11 13:53:51;;;;;;;;;11.25;10.25;;;;;42.24;11.99;101408.38;5084097;27;45309;-67
2022/08/11 13:56:17;;;;;;;;;12.50;11.25;;;;;42.33;12.23;101407.16;5091714;27;45574;-67
2022/08/11 13:58:42;;;;;;;;;10.25;8.75;;;;;42.51;11.81;101418.47;5072968;27;45508;-68
2022/08/11 14:01:08;;;;;;;;;9.00;9.00;;;;;41.87;11.96;101390.09;5091920;27;45250;-67
2022/08/11 14:03:34;;;;;;;;;15.75;13.25;;;;;42.22;12.03;101407.91;5082702;27;45313;-67
2022/08/11 14:06:02;;;;;;;;;22.25;16.75;;;;;42.67;12.64;101408.06;5092997;27;45499;-67
2022/08/11 14:08:34;;;;;;;;;8.25;7.75;;;;;42.63;11.81;101421.38;5085195;27;45501;-67
2022/08/11 14:13:48;;;;;;;;;10.00;8.50;;;;;42.59;12.40;101406.97;5093291;27;45439;-68
2022/08/11 14:16:27;;;;;;;;;9.75;9.00;;;;;42.73;11.96;101409.56;5092485;27;45389;-68
2022/08/11 14:18:56;;;;;;;;;8.50;8.50;;;;;42.27;11.66;101388.53;5095888;27;45661;-68
2022/08/11 14:24:10;;;;;;;;;7.50;7.50;;;;;42.23;11.84;101393.25;5084945;27;45458;-68
2022/08/11 14:26:37;;;;;;;;;9.75;9.25;;;;;42.14;11.85;101394.50;5096567;27;45391;-68
2022/08/11 14:29:08;;;;;;;;;8.25;8.25;;;;;42.71;11.86;101386.19;5087657;27;45235;-69
2022/08/11 14:31:36;;;;;;;;;9.50;9.50;;;;;43.15;12.44;101383.78;5094524;27;45470;-69
2022/08/11 14:34:05;;;;;;;;;8.25;7.00;;;;;42.57;11.42;101380.75;5087077;27;45245;-68
2022/08/11 14:36:37;;;;;;;;;11.25;9.00;;;;;42.85;11.15;101381.03;5094741;27;45466;-68
2022/08/11 14:39:11;;;;;;;;;9.25;9.25;;;;;43.25;11.52;101389.06;5087181;27;46203;-68
2022/08/11 14:47:03;;;;;;;;;7.50;7.50;;;;;43.63;10.79;101372.44;5087637;27;45455;-68
2022/08/11 14:47:17;;;;;;;;;9.50;9.50;;;;;43.45;10.40;101359.53;5078287;27;45164;-68
2022/08/11 14:49:43;;;;;;;;;9.25;9.25;;;;;43.74;10.96;101370.78;5090289;27;45192;-68
2022/08/11 14:52:15;;;;;;;;;11.75;9.50;;;;;43.99;10.28;101370.78;5093863;27;45385;-68
2022/08/11 14:57:34;;;;;;;;;10.50;10.50;;;;;43.76;11.03;101348.38;5091168;27;45374;-68
2022/08/11 15:00:02;;;;;;;;;10.00;10.00;;;;;44.18;10.66;101362.41;5092332;27;45605;-68
2022/08/11 15:05:14;;;;;;;;;10.50;10.25;;;;;44.12;10.79;101346.69;5093959;27;45238;-68
2022/08/11 15:07:40;;;;;;;;;11.50;9.75;;;;;44.18;11.26;101348.09;5088230;27;45275;-69
2022/08/11 15:10:08;;;;;;;;;10.75;10.25;;;;;43.94;10.30;101333.81;5091666;27;46816;-69
2022/08/11 15:12:35;;;;;;;;;8.75;8.75;;;;;44.01;10.90;101332.00;5091054;27;45394;-69
2022/08/11 15:17:50;;;;;;;;;10.00;10.00;;;;;44.90;10.56;101324.09;5092723;27;45305;-69
2022/08/11 15:25:55;;;;;;;;;12.00;10.75;;;;;45.43;10.44;101336.22;5092355;27;45373;-68
2022/08/11 15:39:36;;;;;;;;;12.25;11.50;;;;;46.75;8.94;101326.66;5089986;27;45543;-68
2022/08/11 15:47:44;;;;;;;;;9.50;9.50;;;;;47.93;8.45;101318.09;5088030;27;45313;-67
2022/08/11 15:50:15;;;;;;;;;11.25;11.25;;;;;48.98;7.50;101319.91;5092532;27;45635;-67
2022/08/11 15:52:55;;;;;;;;;8.75;8.25;;;;;49.47;7.96;101319.59;5087590;27;45243;-67
2022/08/11 15:55:23;;;;;;;;;8.25;8.25;;;;;49.51;7.34;101329.13;5091241;27;45490;-67
2022/08/11 16:06:09;;;;;;;;;10.75;8.25;;;;;50.03;7.15;101315.47;5094893;27;45322;-67
2022/08/11 16:08:37;;;;;;;;;11.50;10.25;;;;;51.69;6.26;101321.78;5086872;27;45350;-67
2022/08/11 16:11:04;;;;;;;;;9.75;9.00;;;;;52.56;6.38;101324.06;5092694;27;45616;-67
2022/08/11 16:16:14;;;;;;;;;11.50;10.50;;;;;52.66;5.72;101326.06;5091094;27;45337;-67
2022/08/11 16:18:55;;;;;;;;;8.75;8.75;;;;;52.96;5.88;101313.91;5087441;27;45242;-66
2022/08/11 16:21:32;;;;;;;;;8.00;8.00;;;;;48.81;7.29;101303.25;5095162;27;45437;-66
2022/08/11 16:24:00;;;;;;;;;10.25;10.25;;;;;46.32;9.21;101306.81;5081843;27;45512;-67
2022/08/11 16:26:28;;;;;;;;;10.75;9.00;;;;;44.42;10.43;101296.47;5097642;27;45395;-67
2022/08/11 16:28:58;;;;;;;;;10.50;10.25;;;;;41.99;11.27;101295.19;5088455;27;45466;-67